Time;durP1;ratioP1;P1;durP2;ratioP2;P2;SDS_P1;SDS_P2;PMS_P1;PMS_P2;Temp;Humidity;BMP_temperature;BMP_pressure;BME280_temperature;BME280_humidity;BME280_pressure;Samples;Min_cycle;Max_cycle;Signal;HPM_P1;HPM_P2
2023/12/17 00:00:29;;;;;;;;;43.25;35.00;;;;;9.23;73.68;102800.38;146613;635;46016;-65
2023/12/17 00:03:35;;;;;;;;;47.00;38.50;;;;;9.31;73.29;102825.25;146618;615;46010;-64
2023/12/17 00:06:37;;;;;;;;;36.00;30.75;;;;;9.27;73.75;102830.94;146614;601;46017;-63
2023/12/17 00:09:32;;;;;;;;;19.75;18.50;;;;;9.22;73.40;102834.78;146608;582;46021;-63
2023/12/17 00:12:32;;;;;;;;;6.00;4.50;;;;;9.21;73.24;102836.47;146616;579;46016;-62
2023/12/17 00:15:59;;;;;;;;;14.50;13.75;;;;;9.19;73.07;102847.44;146619;618;45023;-62
2023/12/17 00:18:54;;;;;;;;;15.00;13.75;;;;;9.12;72.90;102840.81;146616;587;46916;-63
2023/12/17 00:22:00;;;;;;;;;23.75;18.50;;;;;9.05;72.56;102856.56;146614;564;46010;-63
2023/12/17 00:24:59;;;;;;;;;13.25;12.00;;;;;9.01;73.41;102864.81;146615;645;46016;-66
2023/12/17 00:28:01;;;;;;;;;14.75;12.50;;;;;8.96;74.97;102858.28;146616;571;47010;-65
2023/12/17 00:30:59;;;;;;;;;5.25;5.25;;;;;8.93;74.80;102870.94;146612;587;47012;-64
2023/12/17 00:34:04;;;;;;;;;10.25;6.00;;;;;8.92;74.22;102866.56;146620;615;46020;-64
2023/12/17 00:36:59;;;;;;;;;9.00;7.50;;;;;8.91;74.09;102873.41;146618;569;46014;-63
2023/12/17 00:39:58;;;;;;;;;4.75;4.25;;;;;8.88;74.23;102877.37;146620;592;47020;-65
2023/12/17 00:43:06;;;;;;;;;12.00;11.75;;;;;8.81;73.97;102873.31;146619;574;46016;-64
2023/12/17 00:46:05;;;;;;;;;11.50;11.50;;;;;8.77;74.36;102879.88;146617;590;46020;-65
2023/12/17 00:49:27;;;;;;;;;14.75;11.75;;;;;8.75;74.47;102886.59;146614;660;47016;-66
2023/12/17 00:52:25;;;;;;;;;9.75;9.25;;;;;8.73;74.60;102892.41;146617;616;47050;-65
2023/12/17 00:55:21;;;;;;;;;9.50;8.50;;;;;8.71;75.35;102891.34;146617;607;46012;-65
2023/12/17 00:58:19;;;;;;;;;11.25;9.50;;;;;8.69;75.57;102898.97;146622;574;46010;-65
2023/12/17 01:01:16;;;;;;;;;13.50;12.50;;;;;8.67;75.76;102908.25;146616;734;47012;-64
2023/12/17 01:04:20;;;;;;;;;6.50;5.25;;;;;8.64;75.61;102915.72;146619;566;45020;-64
2023/12/17 01:07:13;;;;;;;;;4.75;4.00;;;;;8.62;75.74;102917.25;146617;583;46016;-65
2023/12/17 01:10:17;;;;;;;;;0.50;0.50;;;;;8.58;75.58;102924.59;146620;594;46020;-65
2023/12/17 01:13:31;;;;;;;;;3.00;2.25;;;;;8.54;75.72;102923.38;146618;570;46016;-64
2023/12/17 01:16:28;;;;;;;;;4.00;3.00;;;;;8.56;75.90;102927.00;146616;571;47010;-64
2023/12/17 01:19:39;;;;;;;;;4.75;3.50;;;;;8.60;75.83;102929.13;146617;631;46015;-65
2023/12/17 01:22:48;;;;;;;;;3.25;3.00;;;;;8.58;75.23;102933.25;146618;631;47025;-65
2023/12/17 01:25:51;;;;;;;;;4.00;4.00;;;;;8.55;75.82;102933.84;146618;577;47012;-65
2023/12/17 01:28:55;;;;;;;;;3.00;3.00;;;;;8.56;75.98;102929.59;146623;621;46010;-65
2023/12/17 01:32:00;;;;;;;;;4.75;4.75;;;;;8.59;76.06;102929.88;146619;580;46016;-64
2023/12/17 01:35:08;;;;;;;;;;;;;;;;;;;;;
2023/12/17 01:38:06;;;;;;;;;7.50;6.75;;;;;8.62;77.03;102932.75;146615;613;46016;-63
2023/12/17 01:41:07;;;;;;;;;10.25;9.00;;;;;8.64;76.93;102931.25;146622;675;46013;-64
2023/12/17 01:44:06;;;;;;;;;5.00;4.00;;;;;8.65;76.74;102933.03;146617;607;47012;-64
2023/12/17 01:46:58;;;;;;;;;6.25;4.25;;;;;8.62;77.02;102931.84;146619;586;47010;-64
2023/12/17 01:50:00;;;;;;;;;5.00;5.00;;;;;8.56;76.65;102937.34;146613;574;47918;-64
2023/12/17 01:53:21;;;;;;;;;11.50;10.00;;;;;8.46;77.84;102924.31;146616;678;46034;-65
2023/12/17 01:56:17;;;;;;;;;10.00;7.25;;;;;8.48;78.58;102931.47;146615;604;46018;-67
2023/12/17 01:59:32;;;;;;;;;9.50;8.25;;;;;8.51;78.24;102938.63;146620;599;46020;-66
2023/12/17 02:02:27;;;;;;;;;10.25;8.75;;;;;8.52;78.95;102935.25;146617;583;46016;-65
2023/12/17 02:05:31;;;;;;;;;7.50;5.50;;;;;8.52;78.92;102933.56;146623;584;46011;-65
2023/12/17 02:08:27;;;;;;;;;8.50;7.75;;;;;8.53;79.52;102942.22;146620;600;46012;-64
2023/12/17 02:11:33;;;;;;;;;9.00;9.00;;;;;8.52;79.21;102946.50;146620;595;45020;-65
2023/12/17 02:14:39;;;;;;;;;5.00;4.50;;;;;8.50;78.60;102948.06;146619;564;46012;-65
2023/12/17 02:17:43;;;;;;;;;2.00;2.00;;;;;8.45;78.69;102946.69;146621;580;46012;-64
2023/12/17 02:20:41;;;;;;;;;0.75;0.00;;;;;8.38;78.96;102940.75;146617;611;46916;-64
2023/12/17 02:23:40;;;;;;;;;1.25;1.25;;;;;8.37;79.16;102944.09;146619;569;46010;-62
2023/12/17 02:27:05;;;;;;;;;0.50;0.50;;;;;8.12;78.64;102902.06;146619;587;46012;-62
2023/12/17 02:30:02;;;;;;;;;4.00;2.75;;;;;8.34;79.40;102940.44;146633;576;46020;-62
2023/12/17 02:33:05;;;;;;;;;0.00;0.00;;;;;8.32;78.70;102944.56;146634;640;45016;-63
2023/12/17 02:36:10;;;;;;;;;1.00;0.00;;;;;8.26;78.40;102936.25;146633;576;45021;-66
2023/12/17 02:39:13;;;;;;;;;0.00;0.00;;;;;8.23;78.42;102938.53;146630;566;47033;-65
2023/12/17 02:42:18;;;;;;;;;1.00;0.00;;;;;8.18;78.28;102939.75;146637;604;45021;-64
2023/12/17 02:45:17;;;;;;;;;0.00;0.00;;;;;8.16;78.38;102936.13;146633;601;47012;-63
2023/12/17 02:48:12;;;;;;;;;0.00;0.00;;;;;8.12;78.74;102941.75;146637;607;45010;-65
2023/12/17 02:51:17;;;;;;;;;0.00;0.00;;;;;8.08;78.50;102950.88;146631;575;46012;-64
2023/12/17 02:54:20;;;;;;;;;0.00;0.00;;;;;8.06;79.07;102948.91;146635;573;45010;-64
2023/12/17 02:57:29;;;;;;;;;0.00;0.00;;;;;8.06;78.60;102947.22;146633;606;45017;-63
2023/12/17 03:00:36;;;;;;;;;0.50;0.00;;;;;8.07;78.78;102956.81;146637;592;45020;-64
2023/12/17 03:03:34;;;;;;;;;0.00;0.00;;;;;8.06;78.63;102956.66;146623;572;47012;-65
2023/12/17 03:06:41;;;;;;;;;0.25;0.00;;;;;5.68;78.05;102541.28;146636;705;45020;-65
2023/12/17 03:09:44;;;;;;;;;1.00;1.00;;;;;8.02;78.49;102958.03;146634;569;45014;-65
2023/12/17 03:12:36;;;;;;;;;2.25;1.25;;;;;8.04;78.59;102968.53;146633;631;46010;-64
2023/12/17 03:15:34;;;;;;;;;1.00;1.00;;;;;8.07;78.32;102968.81;146632;579;46012;-65
2023/12/17 03:18:55;;;;;;;;;1.00;1.00;;;;;8.08;78.09;102971.53;146636;579;46010;-64
2023/12/17 03:22:01;;;;;;;;;1.00;1.00;;;;;8.06;78.13;102972.16;146634;610;46012;-65
2023/12/17 03:25:01;;;;;;;;;1.00;0.00;;;;;8.04;77.80;102976.28;146636;678;45020;-64
2023/12/17 03:28:12;;;;;;;;;1.00;0.00;;;;;8.06;78.06;102969.56;146624;571;46016;-63
2023/12/17 03:31:11;;;;;;;;;2.00;1.50;;;;;8.09;78.71;102972.44;146619;600;46020;-63
2023/12/17 03:34:10;;;;;;;;;7.00;5.50;;;;;8.09;78.37;102975.94;146618;632;46017;-65
2023/12/17 03:37:19;;;;;;;;;7.75;4.50;;;;;7.01;77.77;102779.44;146620;617;46020;-62
2023/12/17 03:40:39;;;;;;;;;4.00;4.00;;;;;8.08;78.36;102975.81;146616;630;46016;-63
2023/12/17 03:43:37;;;;;;;;;3.25;2.25;;;;;8.08;77.45;102978.38;146618;607;46020;-64
2023/12/17 03:46:42;;;;;;;;;2.00;2.00;;;;;8.06;77.64;102985.06;146617;577;46916;-63
2023/12/17 03:49:54;;;;;;;;;1.00;1.00;;;;;8.05;77.62;102997.09;146621;626;46010;-62
2023/12/17 03:53:10;;;;;;;;;;;;;;;;;;;;;
2023/12/17 03:56:28;;;;;;;;;;;;;;;;;;;;;
2023/12/17 03:59:41;;;;;;;;;1.00;1.00;;;;;8.02;77.62;102994.19;146615;600;46016;-62
2023/12/17 04:02:37;;;;;;;;;1.00;1.00;;;;;8.09;77.74;103017.28;146618;595;46021;-63
2023/12/17 04:05:45;;;;;;;;;3.00;2.00;;;;;8.08;78.36;103017.16;146617;565;46016;-65
2023/12/17 04:08:38;;;;;;;;;2.50;1.50;;;;;8.12;78.94;103031.28;146620;710;46020;-64
2023/12/17 04:11:48;;;;;;;;;6.00;4.25;;;;;8.11;78.88;103032.97;146618;582;46017;-64
2023/12/17 04:14:43;;;;;;;;;3.00;3.00;;;;;8.05;79.00;103035.84;146620;573;46020;-64
2023/12/17 04:17:42;;;;;;;;;3.00;3.00;;;;;8.04;80.02;103035.72;146613;564;46015;-64
2023/12/17 04:20:37;;;;;;;;;1.50;1.50;;;;;8.01;80.58;103036.31;146620;564;46010;-65
2023/12/17 04:23:35;;;;;;;;;2.00;2.00;;;;;7.98;81.07;103035.09;146615;600;47016;-65
2023/12/17 04:26:36;;;;;;;;;2.25;2.25;;;;;7.98;80.99;103037.69;146620;564;46021;-64
2023/12/17 04:30:04;;;;;;;;;3.00;3.00;;;;;7.98;81.29;103022.19;146631;570;46022;-64
2023/12/17 04:33:02;;;;;;;;;5.00;5.00;;;;;8.01;81.19;103031.16;146637;602;44592;-64
2023/12/17 04:36:17;;;;;;;;;;;;;;;;;;;;;
2023/12/17 04:39:15;;;;;;;;;8.50;7.25;;;;;8.03;81.12;103049.38;146625;552;46025;-64
2023/12/17 04:42:25;;;;;;;;;4.00;4.00;;;;;8.04;80.99;103059.88;146634;618;45016;-64
2023/12/17 04:45:56;;;;;;;;;7.00;5.00;;;;;8.05;80.74;103063.34;146636;580;45012;-63
2023/12/17 04:48:49;;;;;;;;;4.50;3.75;;;;;8.03;80.66;103064.88;146630;587;45033;-66
2023/12/17 04:52:12;;;;;;;;;7.75;6.00;;;;;8.03;80.78;103070.94;146635;585;45010;-63
2023/12/17 04:55:15;;;;;;;;;5.50;5.00;;;;;8.05;80.39;103069.44;146631;584;45035;-64
2023/12/17 04:58:28;;;;;;;;;6.00;5.50;;;;;5.63;80.41;102653.16;146636;627;45010;-64
2023/12/17 05:01:29;;;;;;;;;5.00;5.00;;;;;8.04;81.30;103074.47;146632;600;46015;-64
2023/12/17 05:04:32;;;;;;;;;5.00;4.00;;;;;8.04;81.80;103071.88;146636;624;45021;-62
2023/12/17 05:07:37;;;;;;;;;3.25;3.25;;;;;8.00;81.30;103074.91;146633;645;45016;-66
2023/12/17 05:10:42;;;;;;;;;8.00;6.00;;;;;7.97;81.16;103074.59;146632;673;45012;-65
2023/12/17 05:13:49;;;;;;;;;4.00;3.75;;;;;7.95;81.27;103084.78;146635;560;46014;-64
2023/12/17 05:16:57;;;;;;;;;4.50;3.75;;;;;7.93;81.18;103083.72;146636;596;46010;-66
2023/12/17 05:19:49;;;;;;;;;8.75;7.00;;;;;7.93;81.34;103094.06;146634;581;45012;-62
2023/12/17 05:23:18;;;;;;;;;9.50;8.75;;;;;7.94;81.08;103094.97;146634;598;45010;-63
2023/12/17 05:26:11;;;;;;;;;4.50;4.50;;;;;7.95;81.74;103107.13;146634;584;45916;-64
2023/12/17 05:29:20;;;;;;;;;5.00;4.00;;;;;7.96;81.88;103103.78;146603;565;47020;-64
2023/12/17 05:32:27;;;;;;;;;;;;;;;;;;;;;
2023/12/17 05:35:44;;;;;;;;;6.00;4.00;;;;;7.99;82.28;103128.25;146620;598;46012;-64
2023/12/17 05:38:48;;;;;;;;;9.00;7.00;;;;;8.04;82.23;103132.22;146603;727;47915;-65
2023/12/17 05:41:43;;;;;;;;;8.75;8.00;;;;;8.02;82.51;103133.72;146618;604;46021;-63
2023/12/17 05:44:44;;;;;;;;;18.75;17.50;;;;;8.06;82.18;103130.69;146615;564;46012;-64
2023/12/17 05:47:39;;;;;;;;;16.75;12.75;;;;;8.07;82.65;103139.38;146611;629;46021;-64
2023/12/17 05:50:37;;;;;;;;;6.75;6.25;;;;;7.98;82.77;103143.62;146605;563;47012;-64
2023/12/17 05:53:45;;;;;;;;;12.50;11.75;;;;;7.91;82.80;103142.06;146622;587;46010;-64
2023/12/17 05:56:53;;;;;;;;;17.50;14.75;;;;;7.94;82.59;103149.22;146612;572;46016;-63
2023/12/17 06:00:07;;;;;;;;;9.00;9.00;;;;;7.97;83.47;103159.84;146604;590;47012;-63
2023/12/17 06:03:30;;;;;;;;;7.25;7.00;;;;;8.01;83.27;103155.16;146607;588;47917;-65
2023/12/17 06:06:34;;;;;;;;;8.50;8.50;;;;;8.05;83.97;103156.38;146619;569;46020;-66
2023/12/17 06:09:47;;;;;;;;;11.25;9.25;;;;;8.07;83.70;103165.22;146617;630;46016;-64
2023/12/17 06:12:45;;;;;;;;;12.75;11.00;;;;;8.09;83.83;103166.25;146617;659;46020;-65
2023/12/17 06:15:42;;;;;;;;;12.75;11.75;;;;;8.11;83.78;103177.66;146607;644;47012;-67
2023/12/17 06:18:53;;;;;;;;;15.00;11.75;;;;;8.13;84.37;103168.41;146612;579;47010;-65
2023/12/17 06:22:02;;;;;;;;;;;;;;;;;;;;;
2023/12/17 06:25:28;;;;;;;;;22.50;18.25;;;;;8.10;84.20;103162.94;146613;575;46011;-65
2023/12/17 06:28:43;;;;;;;;;;;;;;;;;;;;;
2023/12/17 06:31:52;;;;;;;;;16.00;13.50;;;;;4.09;83.42;102463.31;146607;672;46010;-65
2023/12/17 06:34:56;;;;;;;;;20.50;19.50;;;;;8.08;83.75;103172.19;146611;574;46016;-63
2023/12/17 06:37:54;;;;;;;;;19.00;15.75;;;;;8.12;84.14;103182.06;146611;583;46020;-64
2023/12/17 06:41:04;;;;;;;;;16.75;15.00;;;;;8.15;84.39;103168.53;146606;661;46016;-63
2023/12/17 06:44:03;;;;;;;;;14.00;12.00;;;;;8.15;83.97;103177.19;146610;563;47010;-65
2023/12/17 06:46:57;;;;;;;;;12.25;11.00;;;;;8.15;83.72;103194.38;146610;576;46017;-63
2023/12/17 06:50:03;;;;;;;;;9.50;9.25;;;;;8.17;83.46;103200.63;146611;591;46010;-64
2023/12/17 06:53:25;;;;;;;;;;;;;;;;;;;;;
2023/12/17 06:56:29;;;;;;;;;16.50;12.50;;;;;8.17;83.84;103193.78;146615;573;46020;-63
2023/12/17 06:59:41;;;;;;;;;10.25;9.25;;;;;8.15;83.30;103195.28;146608;563;46033;-65
2023/12/17 07:02:38;;;;;;;;;12.25;10.75;;;;;8.14;84.53;103200.31;146604;579;48010;-64
2023/12/17 07:05:45;;;;;;;;;7.50;7.25;;;;;8.11;83.67;103213.84;146610;586;46014;-63
2023/12/17 07:08:42;;;;;;;;;11.50;10.50;;;;;8.08;84.61;103213.53;146619;589;47010;-65
2023/12/17 07:11:38;;;;;;;;;12.00;8.00;;;;;8.06;83.72;103215.03;146611;604;46016;-64
2023/12/17 07:14:40;;;;;;;;;14.00;12.50;;;;;8.09;83.87;103220.53;146620;605;46010;-64
2023/12/17 07:17:55;;;;;;;;;14.00;11.75;;;;;8.09;83.17;103225.69;146606;633;47012;-61
2023/12/17 07:20:52;;;;;;;;;11.00;11.00;;;;;8.10;83.89;103230.13;146612;583;47010;-63
2023/12/17 07:23:50;;;;;;;;;15.50;13.50;;;;;8.12;83.63;103236.34;146612;624;46017;-64
2023/12/17 07:27:04;;;;;;;;;24.00;23.00;;;;;5.78;82.71;102818.56;146608;625;46020;-64
2023/12/17 07:30:23;;;;;;;;;26.50;24.75;;;;;8.13;82.99;103245.94;146611;629;46016;-63
2023/12/17 07:33:36;;;;;;;;;22.25;18.25;;;;;8.13;83.29;103248.53;146606;640;46020;-64
2023/12/17 07:36:56;;;;;;;;;21.75;16.75;;;;;8.13;83.21;103251.09;146609;603;46014;-64
2023/12/17 07:40:09;;;;;;;;;16.25;15.25;;;;;5.80;83.03;102827.38;146611;596;47012;-63
2023/12/17 07:43:03;;;;;;;;;14.75;13.75;;;;;8.17;83.51;103250.66;146611;583;46012;-65
2023/12/17 07:46:00;;;;;;;;;15.75;15.00;;;;;8.17;84.36;103254.91;146614;694;47021;-65
2023/12/17 07:48:54;;;;;;;;;14.00;14.00;;;;;8.14;83.75;103263.25;146606;591;46016;-67
2023/12/17 07:51:56;;;;;;;;;19.25;17.25;;;;;8.14;83.20;103259.75;146609;578;46021;-62
2023/12/17 07:55:06;;;;;;;;;18.75;13.50;;;;;8.09;84.07;103257.59;146611;575;46012;-64
2023/12/17 07:58:01;;;;;;;;;20.25;16.00;;;;;8.16;84.13;103255.62;146611;647;46020;-65
2023/12/17 08:01:01;;;;;;;;;18.50;17.00;;;;;8.17;83.23;103255.81;146607;612;46033;-65
2023/12/17 08:04:07;;;;;;;;;15.75;14.75;;;;;8.19;83.29;103261.13;146604;573;46020;-65
2023/12/17 08:07:17;;;;;;;;;14.50;12.50;;;;;8.25;82.22;103269.50;146612;611;46017;-65
2023/12/17 08:10:30;;;;;;;;;21.00;18.00;;;;;8.32;81.60;103277.13;146608;594;47020;-66
2023/12/17 08:13:34;;;;;;;;;14.50;12.75;;;;;8.40;81.60;103280.50;146609;565;46012;-68
2023/12/17 08:16:37;;;;;;;;;14.25;14.25;;;;;8.44;80.41;103282.62;146610;682;46020;-65
2023/12/17 08:19:39;;;;;;;;;29.00;23.50;;;;;6.48;79.85;102928.91;146609;587;46012;-64
2023/12/17 08:22:36;;;;;;;;;18.25;17.00;;;;;8.46;79.59;103276.88;146608;717;47020;-66
2023/12/17 08:25:30;;;;;;;;;20.50;16.00;;;;;8.50;79.38;103285.84;146606;565;46012;-65
2023/12/17 08:28:26;;;;;;;;;18.75;17.25;;;;;8.55;78.80;103284.66;146614;580;47010;-64
2023/12/17 08:31:55;;;;;;;;;28.25;25.25;;;;;8.58;78.45;103292.72;146616;572;46017;-63
2023/12/17 08:34:56;;;;;;;;;27.75;26.00;;;;;8.62;78.36;103284.50;146617;623;46020;-64
2023/12/17 08:38:01;;;;;;;;;;;;;;;;;;;;;
2023/12/17 08:41:15;;;;;;;;;32.50;30.00;;;;;8.84;78.06;103291.81;146618;574;46022;-65
2023/12/17 08:44:22;;;;;;;;;38.00;33.00;;;;;8.98;77.90;103271.72;146613;583;46016;-66
2023/12/17 08:47:24;;;;;;;;;35.00;30.75;;;;;9.08;77.27;103281.28;146619;563;48010;-66
2023/12/17 08:50:29;;;;;;;;;31.75;27.50;;;;;9.18;76.99;103281.41;146617;578;46014;-66
2023/12/17 08:53:29;;;;;;;;;37.00;30.75;;;;;9.22;75.78;103280.97;146620;588;46020;-66
2023/12/17 08:56:24;;;;;;;;;34.75;30.50;;;;;9.38;76.79;103282.47;146613;622;47012;-65
2023/12/17 08:59:27;;;;;;;;;34.50;30.00;;;;;9.51;75.82;103285.47;146617;588;46021;-66
2023/12/17 09:02:29;;;;;;;;;29.25;27.00;;;;;9.63;74.55;103281.47;146615;586;46016;-68
2023/12/17 09:05:31;;;;;;;;;23.00;21.00;;;;;9.72;74.44;103281.44;146618;584;46020;-66
2023/12/17 09:08:40;;;;;;;;;17.75;17.75;;;;;9.77;74.73;103279.25;146615;596;46013;-66
2023/12/17 09:11:44;;;;;;;;;20.75;18.50;;;;;9.80;74.80;103282.16;146619;657;46012;-65
2023/12/17 09:14:38;;;;;;;;;19.00;18.75;;;;;9.76;74.25;103280.03;146616;591;46016;-66
2023/12/17 09:17:42;;;;;;;;;21.25;16.75;;;;;9.73;74.40;103282.34;146618;582;46020;-65
2023/12/17 09:20:44;;;;;;;;;18.25;15.75;;;;;9.71;74.16;103277.00;146615;582;47022;-66
2023/12/17 09:23:50;;;;;;;;;24.25;22.75;;;;;9.71;74.55;103277.00;146619;570;47010;-65
2023/12/17 09:26:49;;;;;;;;;17.75;16.75;;;;;9.68;74.28;103264.66;146619;565;46012;-66
2023/12/17 09:29:43;;;;;;;;;33.50;30.00;;;;;9.71;75.44;103259.75;146633;588;45011;-66
2023/12/17 09:32:44;;;;;;;;;27.25;25.25;;;;;9.79;75.46;103267.37;146632;602;45016;-67
2023/12/17 09:35:38;;;;;;;;;38.50;32.00;;;;;9.85;74.95;103263.69;146632;577;46010;-66
2023/12/17 09:38:42;;;;;;;;;38.00;32.25;;;;;9.85;74.46;103257.59;146632;653;47012;-65
2023/12/17 09:41:36;;;;;;;;;15.25;13.25;;;;;9.86;74.60;103269.78;146632;602;46010;-66
2023/12/17 09:44:30;;;;;;;;;28.25;23.75;;;;;9.86;74.76;103251.62;146631;587;45014;-67
2023/12/17 09:47:23;;;;;;;;;21.00;19.25;;;;;9.86;74.64;103256.81;146635;622;45020;-68
2023/12/17 09:50:20;;;;;;;;;22.50;19.50;;;;;9.83;75.05;103256.53;146631;654;45016;-67
2023/12/17 09:53:17;;;;;;;;;33.75;28.50;;;;;9.82;75.14;103266.00;146635;631;45020;-66
2023/12/17 09:56:21;;;;;;;;;25.50;22.25;;;;;9.83;75.21;103257.44;146629;579;46012;-66
2023/12/17 09:59:25;;;;;;;;;36.25;31.75;;;;;9.86;75.27;103267.19;146634;580;45011;-66
2023/12/17 10:02:21;;;;;;;;;32.50;29.75;;;;;9.84;74.94;103261.84;146633;616;45012;-65
2023/12/17 10:05:24;;;;;;;;;24.75;17.75;;;;;9.88;75.01;103260.47;146634;582;45020;-66
2023/12/17 10:08:16;;;;;;;;;27.00;26.50;;;;;9.92;74.30;103268.66;146630;569;46916;-66
2023/12/17 10:11:17;;;;;;;;;22.25;19.00;;;;;9.98;74.83;103259.66;146634;624;45020;-67
2023/12/17 10:14:32;;;;;;;;;34.75;30.50;;;;;10.05;74.31;103259.47;146632;604;45922;-66
2023/12/17 10:17:39;;;;;;;;;28.25;26.50;;;;;10.18;73.87;103255.53;146634;569;45027;-66
2023/12/17 10:20:43;;;;;;;;;36.50;32.25;;;;;10.28;73.90;103256.44;146635;581;45918;-67
2023/12/17 10:24:12;;;;;;;;;34.00;31.25;;;;;10.42;73.38;103263.81;146632;595;46010;-66
2023/12/17 10:27:27;;;;;;;;;31.50;30.50;;;;;10.47;72.85;103267.78;146628;816;45021;-67
2023/12/17 10:30:56;;;;;;;;;27.50;27.00;;;;;6.55;71.86;102551.56;146616;609;46021;-67
2023/12/17 10:34:24;;;;;;;;;35.50;31.25;;;;;6.33;72.21;102493.56;146617;612;46914;-67
2023/12/17 10:38:02;;;;;;;;;33.00;30.25;;;;;6.77;71.74;102556.22;146620;704;46010;-67
2023/12/17 10:40:59;;;;;;;;;22.25;21.00;;;;;10.59;71.14;103242.97;146615;600;46016;-67
2023/12/17 10:44:09;;;;;;;;;26.25;24.50;;;;;10.51;70.98;103233.53;146621;585;46011;-66
2023/12/17 10:47:13;;;;;;;;;28.25;25.25;;;;;10.42;71.87;103243.06;146615;643;46012;-68
2023/12/17 10:50:17;;;;;;;;;38.75;32.50;;;;;10.37;73.00;103242.66;146620;607;46010;-66
2023/12/17 10:53:13;;;;;;;;;48.50;40.25;;;;;10.43;73.33;103238.78;146616;628;46033;-66
2023/12/17 10:56:09;;;;;;;;;61.50;46.50;;;;;10.49;72.65;103242.84;146618;577;46030;-66
2023/12/17 10:59:07;;;;;;;;;57.50;45.75;;;;;10.49;71.56;103237.66;146616;619;47012;-67
2023/12/17 11:02:08;;;;;;;;;56.25;44.50;;;;;10.54;71.41;103239.00;146619;573;46020;-66
2023/12/17 11:05:19;;;;;;;;;60.75;46.00;;;;;10.55;71.77;103243.41;146614;697;47012;-66
2023/12/17 11:08:20;;;;;;;;;40.50;32.75;;;;;10.57;72.30;103239.28;146618;611;46020;-67
2023/12/17 11:11:26;;;;;;;;;46.00;37.75;;;;;10.59;71.91;103239.41;146616;644;46014;-66
2023/12/17 11:14:42;;;;;;;;;52.50;40.75;;;;;10.64;72.36;103227.78;146617;609;47020;-67
2023/12/17 11:17:47;;;;;;;;;48.00;38.25;;;;;10.71;71.28;103222.38;146618;593;45038;-67
2023/12/17 11:21:01;;;;;;;;;35.00;30.25;;;;;10.74;71.82;103221.75;146615;625;47020;-68
2023/12/17 11:24:04;;;;;;;;;41.25;33.00;;;;;10.84;72.24;103235.72;146618;596;45016;-66
2023/12/17 11:27:21;;;;;;;;;39.75;32.75;;;;;11.22;71.50;103212.25;146623;572;46010;-67
2023/12/17 11:30:39;;;;;;;;;34.25;30.00;;;;;11.52;71.33;103219.19;146618;571;47014;-66
2023/12/17 11:33:48;;;;;;;;;34.00;30.50;;;;;11.85;70.18;103217.75;146618;630;47020;-66
2023/12/17 11:36:53;;;;;;;;;26.75;26.25;;;;;12.02;67.31;103217.50;146617;596;46918;-67
2023/12/17 11:39:50;;;;;;;;;34.25;29.50;;;;;11.91;66.49;103220.88;146622;579;46012;-67
2023/12/17 11:42:47;;;;;;;;;42.25;33.50;;;;;11.89;67.69;103219.81;146618;609;46016;-69
2023/12/17 11:45:48;;;;;;;;;35.75;29.75;;;;;12.20;68.94;103204.22;146620;617;46020;-67
2023/12/17 11:48:46;;;;;;;;;23.25;21.75;;;;;12.55;64.41;103194.12;146619;569;47012;-67
2023/12/17 11:51:47;;;;;;;;;19.00;17.00;;;;;12.58;63.42;103202.19;146619;632;46020;-66
2023/12/17 11:54:47;;;;;;;;;27.75;23.75;;;;;12.67;63.31;103217.66;146619;569;46917;-67
2023/12/17 11:57:54;;;;;;;;;36.75;30.75;;;;;12.80;61.65;103201.34;146620;617;46011;-67
2023/12/17 12:01:26;;;;;;;;;28.00;23.00;;;;;12.60;63.40;103202.34;146612;581;47016;-67
2023/12/17 12:04:20;;;;;;;;;29.00;26.75;;;;;12.28;62.46;103202.28;146618;591;46010;-67
2023/12/17 12:07:18;;;;;;;;;29.25;26.25;;;;;12.01;63.10;103191.34;146616;749;46016;-66
2023/12/17 12:10:20;;;;;;;;;32.00;29.00;;;;;11.73;63.12;103183.75;146617;565;46020;-66
2023/12/17 12:13:16;;;;;;;;;36.75;32.50;;;;;11.46;63.38;103189.19;146615;570;46016;-66
2023/12/17 12:16:43;;;;;;;;;28.50;26.00;;;;;6.60;64.23;102375.06;146616;586;46012;-67
2023/12/17 12:19:46;;;;;;;;;30.50;29.25;;;;;10.94;64.58;103189.81;146614;592;47015;-67
2023/12/17 12:22:45;;;;;;;;;33.75;30.25;;;;;10.67;64.98;103190.84;146619;631;46010;-66
2023/12/17 12:25:50;;;;;;;;;30.50;29.25;;;;;10.46;65.42;103200.16;146615;569;46016;-67
2023/12/17 12:28:50;;;;;;;;;34.75;30.00;;;;;10.30;66.83;103195.25;146618;564;46012;-67
2023/12/17 12:31:59;;;;;;;;;54.75;42.25;;;;;10.25;67.31;103193.88;146615;580;46016;-67
2023/12/17 12:34:59;;;;;;;;;50.75;41.00;;;;;10.18;67.27;103185.53;146620;633;46010;-67
2023/12/17 12:37:51;;;;;;;;;45.00;35.50;;;;;10.13;68.15;103184.22;146614;596;47915;-68
2023/12/17 12:40:59;;;;;;;;;34.50;31.75;;;;;10.08;68.18;103188.06;146619;570;46020;-68
2023/12/17 12:43:55;;;;;;;;;40.75;32.25;;;;;10.04;68.06;103190.25;146633;591;45017;-66
2023/12/17 12:47:03;;;;;;;;;29.25;25.75;;;;;10.02;68.46;103202.16;146621;579;47010;-66
2023/12/17 12:50:00;;;;;;;;;36.00;31.00;;;;;9.98;67.14;103189.69;146616;645;46916;-66
2023/12/17 12:52:52;;;;;;;;;44.50;35.75;;;;;9.94;68.00;103184.22;146616;581;47010;-67
2023/12/17 12:55:51;;;;;;;;;49.75;37.75;;;;;9.92;67.93;103192.59;146618;588;46012;-65
2023/12/17 12:58:51;;;;;;;;;43.00;35.00;;;;;9.89;67.21;103189.72;146619;563;46020;-68
2023/12/17 13:01:58;;;;;;;;;46.75;36.75;;;;;7.94;67.39;102847.88;146614;611;46012;-65
2023/12/17 13:04:55;;;;;;;;;43.75;35.25;;;;;9.85;67.04;103198.00;146617;681;46021;-67
2023/12/17 13:07:52;;;;;;;;;46.25;36.50;;;;;9.83;68.10;103196.94;146615;612;46016;-65
2023/12/17 13:10:56;;;;;;;;;;;;;;;;;;;;;
2023/12/17 13:14:10;;;;;;;;;;;;;;;;;;;;;
2023/12/17 13:17:13;;;;;;;;;36.50;32.00;;;;;9.88;68.31;103177.56;146621;579;46012;-65
2023/12/17 13:20:14;;;;;;;;;39.25;33.50;;;;;9.87;68.60;103181.78;146616;575;46016;-65
2023/12/17 13:23:14;;;;;;;;;47.00;37.75;;;;;9.92;68.20;103185.72;146618;593;46010;-65
2023/12/17 13:26:11;;;;;;;;;58.25;46.25;;;;;9.99;67.63;103175.94;146619;614;46012;-65
2023/12/17 13:29:11;;;;;;;;;36.75;31.25;;;;;10.03;66.91;103176.38;146619;576;45034;-66
2023/12/17 13:32:10;;;;;;;;;49.75;38.25;;;;;10.05;67.92;103177.41;146617;593;46014;-65
2023/12/17 13:35:06;;;;;;;;;43.25;35.00;;;;;10.10;66.95;103170.06;146618;613;46021;-65
2023/12/17 13:38:26;;;;;;;;;36.25;32.25;;;;;10.15;68.43;103172.28;146614;587;46016;-66
2023/12/17 13:41:29;;;;;;;;;34.25;29.00;;;;;10.17;65.93;103170.75;146620;594;46011;-67
2023/12/17 13:44:34;;;;;;;;;30.75;28.50;;;;;10.13;65.67;103168.66;146616;620;46016;-66
2023/12/17 13:47:30;;;;;;;;;30.50;27.25;;;;;10.20;66.44;103156.28;146620;633;46010;-68
2023/12/17 13:50:30;;;;;;;;;28.50;26.75;;;;;10.39;66.97;103139.03;146616;606;46014;-65
2023/12/17 13:53:36;;;;;;;;;23.50;23.25;;;;;10.84;66.64;103138.72;146622;594;46010;-65
2023/12/17 13:56:39;;;;;;;;;22.00;21.75;;;;;11.36;64.14;103145.91;146613;575;46016;-68
2023/12/17 13:59:52;;;;;;;;;12.00;12.00;;;;;11.74;65.18;103144.03;146620;609;46010;-68
2023/12/17 14:03:11;;;;;;;;;;;;;;;;;;;;;
2023/12/17 14:06:14;;;;;;;;;18.00;17.75;;;;;12.55;60.56;103149.91;146618;613;46020;-68
2023/12/17 14:09:19;;;;;;;;;23.50;21.50;;;;;12.84;59.46;103151.38;146616;573;46016;-67
2023/12/17 14:12:26;;;;;;;;;30.25;27.00;;;;;12.94;56.77;103147.00;146622;575;46010;-66
2023/12/17 14:15:43;;;;;;;;;26.00;24.75;;;;;9.15;58.95;102459.72;146619;663;46012;-65
2023/12/17 14:18:48;;;;;;;;;22.50;20.75;;;;;13.02;57.80;103151.91;146622;581;46012;-65
2023/12/17 14:21:48;;;;;;;;;18.75;16.25;;;;;12.95;56.34;103146.22;146616;599;46915;-66
2023/12/17 14:25:04;;;;;;;;;;;;;;;;;;;;;
2023/12/17 14:28:34;;;;;;;;;14.75;14.75;;;;;8.85;58.94;102452.84;146618;585;46012;-67
2023/12/17 14:31:40;;;;;;;;;15.25;14.25;;;;;12.60;57.06;103132.97;146620;607;46010;-66